Time;durP1;ratioP1;P1;durP2;ratioP2;P2;SDS_P1;SDS_P2;PMS_P1;PMS_P2;Temp;Humidity;BMP_temperature;BMP_pressure;BME280_temperature;BME280_humidity;BME280_pressure;Samples;Min_cycle;Max_cycle;Signal;HPM_P1;HPM_P2
2022/01/27 00:00:38;;;;;;;;;;;;;;;;;;4222789;28;949;-69
2022/01/27 00:03:15;;;;;;;;;;;;;;;;;;4222763;28;829;-68
2022/01/27 00:05:38;;;;;;;;;;;;;;;;;;4221724;28;850;-69
2022/01/27 00:08:10;;;;;;;;;;;;;;;;;;4221628;28;908;-68
2022/01/27 00:10:47;;;;;;;;;;;;;;;;;;4222599;28;883;-68
2022/01/27 00:13:12;;;;;;;;;;;;;;;;;;4222426;28;1071;-68
2022/01/27 00:15:33;;;;;;;;;;;;;;;;;;4221508;28;956;-68
2022/01/27 00:17:58;;;;;;;;;;;;;;;;;;4222252;28;1987;-68
2022/01/27 00:20:19;;;;;;;;;;;;;;;;;;4222393;28;947;-68
2022/01/27 00:22:40;;;;;;;;;;;;;;;;;;4222208;28;966;-68
2022/01/27 00:25:02;;;;;;;;;;;;;;;;;;4221413;28;1028;-68
2022/01/27 00:27:22;;;;;;;;;;;;;;;;;;4221307;28;1093;-68
2022/01/27 00:29:43;;;;;;;;;;;;;;;;;;4222490;28;831;-68
2022/01/27 00:32:04;;;;;;;;;;;;;;;;;;4220773;28;970;-68
2022/01/27 00:34:24;;;;;;;;;;;;;;;;;;4206258;28;1026;-69
2022/01/27 00:36:45;;;;;;;;;;;;;;;;;;4222226;28;1910;-68
2022/01/27 00:39:05;;;;;;;;;;;;;;;;;;4221227;28;1028;-69
2022/01/27 00:41:26;;;;;;;;;;;;;;;;;;4222210;28;828;-68
2022/01/27 00:43:46;;;;;;;;;;;;;;;;;;4222056;28;842;-69
2022/01/27 00:46:12;;;;;;;;;;;;;;;;;;4221088;28;1012;-69
2022/01/27 00:48:33;;;;;;;;;;;;;;;;;;4220899;28;944;-69
2022/01/27 00:50:57;;;;;;;;;;;;;;;;;;4221168;28;841;-67
2022/01/27 00:53:28;;;;;;;;;;;;;;;;;;4221108;28;1046;-68
2022/01/27 00:55:50;;;;;;;;;;;;;;;;;;4221970;28;976;-68
2022/01/27 00:58:24;;;;;;;;;;;;;;;;;;4221904;28;1910;-68
2022/01/27 01:00:53;;;;;;;;;;;;;;;;;;4222266;28;1254;-68
2022/01/27 01:03:24;;;;;;;;;;;;;;;;;;4220896;28;951;-67
2022/01/27 01:06:02;;;;;;;;;;;;;;;;;;4220885;28;985;-67
2022/01/27 01:11:28;;;;;;;;;;;;;;;;;;4220868;28;972;-68
2022/01/27 01:16:32;;;;;;;;;;;;;;;;;;4220630;28;901;-67
2022/01/27 01:19:00;;;;;;;;;;;;;;;;;;4221680;28;1034;-68
2022/01/27 01:21:40;;;;;;;;;;;;;;;;;;4221802;28;1021;-68
2022/01/27 01:29:52;;;;;;;;;;;;;;;;;;4221818;28;897;-68
2022/01/27 01:32:18;;;;;;;;;;;;;;;;;;4221429;28;1075;-68
2022/01/27 01:34:44;;;;;;;;;;;;;;;;;;4220471;28;901;-68
2022/01/27 01:37:06;;;;;;;;;;;;;;;;;;4221227;28;1909;-68
2022/01/27 01:39:27;;;;;;;;;;;;;;;;;;4221927;28;935;-67
2022/01/27 01:41:48;;;;;;;;;;;;;;;;;;4221343;28;1132;-68
2022/01/27 01:44:09;;;;;;;;;;;;;;;;;;4220487;28;866;-68
2022/01/27 01:46:29;;;;;;;;;;;;;;;;;;4220337;28;895;-68
2022/01/27 01:48:50;;;;;;;;;;;;;;;;;;4221467;28;924;-68
2022/01/27 01:51:10;;;;;;;;;;;;;;;;;;4221651;28;975;-68
2022/01/27 01:53:32;;;;;;;;;;;;;;;;;;4221524;28;981;-69
2022/01/27 01:55:52;;;;;;;;;;;;;;;;;;4223572;28;986;-68
2022/01/27 01:58:13;;;;;;;;;;;;;;;;;;4224045;28;1933;-68
2022/01/27 02:03:44;;;;;;;;;;;;;;;;;;4223720;28;955;-69
2022/01/27 02:06:05;;;;;;;;;;;;;;;;;;4223589;28;1049;-68
2022/01/27 02:08:43;;;;;;;;;;;;;;;;;;4223890;28;961;-69
2022/01/27 02:18:58;;;;;;;;;;;;;;;;;;4222869;28;911;-68
2022/01/27 02:21:19;;;;;;;;;;;;;;;;;;4223537;28;959;-68
2022/01/27 02:23:39;;;;;;;;;;;;;;;;;;4223209;28;970;-68
2022/01/27 02:26:00;;;;;;;;;;;;;;;;;;4222869;28;946;-68
2022/01/27 02:28:21;;;;;;;;;;;;;;;;;;4223364;28;1308;-67
2022/01/27 02:30:41;;;;;;;;;;;;;;;;;;4222259;28;926;-67
2022/01/27 02:33:01;;;;;;;;;;;;;;;;;;4222727;28;951;-66
2022/01/27 02:35:21;;;;;;;;;;;;;;;;;;4222038;28;1056;-67
2022/01/27 02:37:42;;;;;;;;;;;;;;;;;;4222351;28;1982;-67
2022/01/27 02:40:02;;;;;;;;;;;;;;;;;;4222963;28;1107;-67
2022/01/27 02:42:22;;;;;;;;;;;;;;;;;;4223815;28;890;-67
2022/01/27 02:44:43;;;;;;;;;;;;;;;;;;4223646;28;947;-67
2022/01/27 02:47:03;;;;;;;;;;;;;;;;;;4222561;28;1071;-67
2022/01/27 02:49:23;;;;;;;;;;;;;;;;;;4222587;28;1168;-67
2022/01/27 02:51:44;;;;;;;;;;;;;;;;;;4223404;28;840;-67
2022/01/27 02:54:05;;;;;;;;;;;;;;;;;;4223828;28;1188;-68
2022/01/27 02:56:25;;;;;;;;;;;;;;;;;;4223667;28;943;-69
2022/01/27 02:58:45;;;;;;;;;;;;;;;;;;4223045;28;1918;-68
2022/01/27 03:01:06;;;;;;;;;;;;;;;;;;4222363;28;1124;-68
2022/01/27 03:03:26;;;;;;;;;;;;;;;;;;4223516;28;932;-68
2022/01/27 03:05:46;;;;;;;;;;;;;;;;;;4221572;28;989;-68
2022/01/27 03:08:07;;;;;;;;;;;;;;;;;;4223449;28;971;-67
2022/01/27 03:10:27;;;;;;;;;;;;;;;;;;4222358;28;1028;-68
2022/01/27 03:12:48;;;;;;;;;;;;;;;;;;4222791;28;1429;-68
2022/01/27 03:15:10;;;;;;;;;;;;;;;;;;4223229;28;945;-68
2022/01/27 03:17:30;;;;;;;;;;;;;;;;;;4223209;28;1909;-68
2022/01/27 03:19:51;;;;;;;;;;;;;;;;;;4223252;28;837;-68
2022/01/27 03:22:12;;;;;;;;;;;;;;;;;;4222127;28;1052;-68
2022/01/27 03:24:32;;;;;;;;;;;;;;;;;;4223177;28;921;-68
2022/01/27 03:26:53;;;;;;;;;;;;;;;;;;4223005;28;950;-68
2022/01/27 03:29:13;;;;;;;;;;;;;;;;;;4221840;28;1318;-68
2022/01/27 03:31:34;;;;;;;;;;;;;;;;;;4222161;28;924;-69
2022/01/27 03:33:54;;;;;;;;;;;;;;;;;;4222009;28;1047;-68
2022/01/27 03:36:15;;;;;;;;;;;;;;;;;;4222729;28;976;-68
2022/01/27 03:38:35;;;;;;;;;;;;;;;;;;4222837;28;1921;-68
2022/01/27 03:40:57;;;;;;;;;;;;;;;;;;4222978;28;843;-68
2022/01/27 03:43:18;;;;;;;;;;;;;;;;;;4222828;28;934;-68
2022/01/27 03:45:38;;;;;;;;;;;;;;;;;;4222398;28;979;-69
2022/01/27 03:47:59;;;;;;;;;;;;;;;;;;4222816;28;1174;-67
2022/01/27 03:50:19;;;;;;;;;;;;;;;;;;4222438;28;950;-67
2022/01/27 03:52:39;;;;;;;;;;;;;;;;;;4223020;28;1030;-67
2022/01/27 03:55:00;;;;;;;;;;;;;;;;;;4222771;28;975;-67
2022/01/27 03:57:20;;;;;;;;;;;;;;;;;;4222722;28;991;-67
2022/01/27 03:59:40;;;;;;;;;;;;;;;;;;4221814;28;1027;-67
2022/01/27 04:02:04;;;;;;;;;;;;;;;;;;4222724;28;828;-68
2022/01/27 04:04:26;;;;;;;;;;;;;;;;;;4222620;28;978;-67
2022/01/27 04:06:50;;;;;;;;;;;;;;;;;;4221324;28;915;-67
2022/01/27 04:09:11;;;;;;;;;;;;;;;;;;4222576;28;848;-67
2022/01/27 04:11:31;;;;;;;;;;;;;;;;;;4222751;28;973;-68
2022/01/27 04:13:52;;;;;;;;;;;;;;;;;;4221541;28;1054;-68
2022/01/27 04:16:12;;;;;;;;;;;;;;;;;;4221545;28;1007;-69
2022/01/27 04:18:33;;;;;;;;;;;;;;;;;;4221515;28;1902;-68
2022/01/27 04:20:53;;;;;;;;;;;;;;;;;;4221498;28;917;-68
2022/01/27 04:23:14;;;;;;;;;;;;;;;;;;4222513;28;932;-68
2022/01/27 04:25:34;;;;;;;;;;;;;;;;;;4222279;28;918;-68
2022/01/27 04:28:00;;;;;;;;;;;;;;;;;;4222082;28;932;-68
2022/01/27 04:30:23;;;;;;;;;;;;;;;;;;4222308;28;1104;-69
2022/01/27 04:32:47;;;;;;;;;;;;;;;;;;4221215;28;1025;-69
2022/01/27 04:35:11;;;;;;;;;;;;;;;;;;4222367;28;994;-69
2022/01/27 04:37:37;;;;;;;;;;;;;;;;;;4221143;28;948;-68
2022/01/27 04:40:05;;;;;;;;;;;;;;;;;;4221357;28;907;-69
2022/01/27 04:42:36;;;;;;;;;;;;;;;;;;4221155;28;974;-68
2022/01/27 04:45:01;;;;;;;;;;;;;;;;;;4221906;28;1109;-68
2022/01/27 04:47:28;;;;;;;;;;;;;;;;;;4221877;28;1062;-69
2022/01/27 04:49:49;;;;;;;;;;;;;;;;;;4221985;28;820;-69
2022/01/27 04:52:10;;;;;;;;;;;;;;;;;;4221335;28;1018;-69
2022/01/27 04:54:36;;;;;;;;;;;;;;;;;;4221975;28;1003;-69
2022/01/27 04:56:59;;;;;;;;;;;;;;;;;;4221018;28;1015;-69
2022/01/27 04:59:23;;;;;;;;;;;;;;;;;;4221878;28;1905;-69
2022/01/27 05:01:48;;;;;;;;;;;;;;;;;;4221962;28;856;-69
2022/01/27 05:04:11;;;;;;;;;;;;;;;;;;4222295;28;1079;-69
2022/01/27 05:06:32;;;;;;;;;;;;;;;;;;4222406;28;951;-69
2022/01/27 05:08:53;;;;;;;;;;;;;;;;;;4222434;28;965;-69
2022/01/27 05:11:19;;;;;;;;;;;;;;;;;;4221924;28;920;-68
2022/01/27 05:13:48;;;;;;;;;;;;;;;;;;4220693;28;1077;-69
2022/01/27 05:16:08;;;;;;;;;;;;;;;;;;4221851;28;946;-69
2022/01/27 05:18:28;;;;;;;;;;;;;;;;;;4221617;28;1901;-68
2022/01/27 05:20:49;;;;;;;;;;;;;;;;;;4221727;28;833;-68
2022/01/27 05:23:10;;;;;;;;;;;;;;;;;;4221691;28;1016;-69
2022/01/27 05:25:30;;;;;;;;;;;;;;;;;;4221700;28;935;-69
2022/01/27 05:27:51;;;;;;;;;;;;;;;;;;4220619;28;981;-68
2022/01/27 05:30:11;;;;;;;;;;;;;;;;;;4223643;28;1152;-69
2022/01/27 05:32:32;;;;;;;;;;;;;;;;;;4223626;28;1114;-69
2022/01/27 05:34:53;;;;;;;;;;;;;;;;;;4223857;28;1022;-69
2022/01/27 05:37:13;;;;;;;;;;;;;;;;;;4224425;28;1189;-69
2022/01/27 05:39:33;;;;;;;;;;;;;;;;;;4224537;28;1976;-68
2022/01/27 05:41:54;;;;;;;;;;;;;;;;;;4224893;28;893;-68
2022/01/27 05:44:14;;;;;;;;;;;;;;;;;;4224627;28;814;-69
2022/01/27 05:46:35;;;;;;;;;;;;;;;;;;4223539;28;869;-68
2022/01/27 05:48:56;;;;;;;;;;;;;;;;;;4223771;28;952;-69
2022/01/27 05:51:17;;;;;;;;;;;;;;;;;;4224224;28;1069;-69
2022/01/27 05:53:37;;;;;;;;;;;;;;;;;;4224363;28;984;-68
2022/01/27 05:55:58;;;;;;;;;;;;;;;;;;4224358;28;1049;-68
2022/01/27 05:58:19;;;;;;;;;;;;;;;;;;4223444;28;2009;-68
2022/01/27 06:00:40;;;;;;;;;;;;;;;;;;4224328;28;943;-69
2022/01/27 06:03:00;;;;;;;;;;;;;;;;;;4224282;28;912;-69
2022/01/27 06:05:21;;;;;;;;;;;;;;;;;;4224262;28;948;-68
2022/01/27 06:07:41;;;;;;;;;;;;;;;;;;4223129;28;929;-68
2022/01/27 06:10:02;;;;;;;;;;;;;;;;;;4223198;28;911;-68
2022/01/27 06:12:22;;;;;;;;;;;;;;;;;;4224068;28;1253;-69
2022/01/27 06:14:43;;;;;;;;;;;;;;;;;;4223679;28;1211;-69
2022/01/27 06:17:04;;;;;;;;;;;;;;;;;;4224350;28;1010;-69
2022/01/27 06:19:27;;;;;;;;;;;;;;;;;;4224045;28;1949;-68
2022/01/27 06:21:47;;;;;;;;;;;;;;;;;;4223294;28;945;-68
2022/01/27 06:24:08;;;;;;;;;;;;;;;;;;4224180;28;886;-69
2022/01/27 06:26:29;;;;;;;;;;;;;;;;;;4224448;28;836;-69
2022/01/27 06:28:49;;;;;;;;;;;;;;;;;;4223913;28;818;-69
2022/01/27 06:31:10;;;;;;;;;;;;;;;;;;4223856;28;900;-68
2022/01/27 06:33:30;;;;;;;;;;;;;;;;;;4223988;28;948;-69
2022/01/27 06:35:50;;;;;;;;;;;;;;;;;;4223842;28;835;-69
2022/01/27 06:38:11;;;;;;;;;;;;;;;;;;4223691;28;952;-69
2022/01/27 06:40:32;;;;;;;;;;;;;;;;;;4223370;28;1976;-69
2022/01/27 06:42:52;;;;;;;;;;;;;;;;;;4223012;28;991;-69
2022/01/27 06:45:13;;;;;;;;;;;;;;;;;;4223827;28;919;-69
2022/01/27 06:47:33;;;;;;;;;;;;;;;;;;4223631;28;975;-69
2022/01/27 06:49:53;;;;;;;;;;;;;;;;;;4223157;28;985;-69
2022/01/27 06:52:14;;;;;;;;;;;;;;;;;;4223469;28;1022;-69
2022/01/27 06:54:35;;;;;;;;;;;;;;;;;;4223502;28;942;-69
2022/01/27 06:56:55;;;;;;;;;;;;;;;;;;4223560;28;821;-69
2022/01/27 06:59:17;;;;;;;;;;;;;;;;;;4223189;28;1905;-69
2022/01/27 07:01:39;;;;;;;;;;;;;;;;;;4223217;28;925;-70
2022/01/27 07:03:59;;;;;;;;;;;;;;;;;;4223479;28;1000;-68
2022/01/27 07:06:20;;;;;;;;;;;;;;;;;;4223169;28;946;-69
2022/01/27 07:08:41;;;;;;;;;;;;;;;;;;4223365;28;978;-68
2022/01/27 07:11:01;;;;;;;;;;;;;;;;;;4223806;28;1067;-68
2022/01/27 07:13:22;;;;;;;;;;;;;;;;;;4223343;28;1164;-69
2022/01/27 07:15:42;;;;;;;;;;;;;;;;;;4223404;28;895;-69
2022/01/27 07:18:02;;;;;;;;;;;;;;;;;;4222310;28;1059;-69
2022/01/27 07:20:23;;;;;;;;;;;;;;;;;;4222869;28;1930;-69
2022/01/27 07:22:44;;;;;;;;;;;;;;;;;;4222629;28;1528;-68
2022/01/27 07:25:04;;;;;;;;;;;;;;;;;;4223146;28;844;-68
2022/01/27 07:27:25;;;;;;;;;;;;;;;;;;4222222;28;834;-68
2022/01/27 07:29:45;;;;;;;;;;;;;;;;;;4222715;28;899;-69
2022/01/27 07:38:37;;;;;;;;;;;;;;;;;;4222421;28;1368;-72
2022/01/27 07:40:58;;;;;;;;;;;;;;;;;;4222933;28;930;-71
2022/01/27 07:43:19;;;;;;;;;;;;;;;;;;4222694;28;1163;-71
2022/01/27 07:45:39;;;;;;;;;;;;;;;;;;4221033;28;1482;-71
2022/01/27 07:48:00;;;;;;;;;;;;;;;;;;4220768;28;1399;-71
2022/01/27 07:50:21;;;;;;;;;;;;;;;;;;4222394;28;1869;-71
2022/01/27 07:52:42;;;;;;;;;;;;;;;;;;4220552;28;1558;-71
2022/01/27 07:55:02;;;;;;;;;;;;;;;;;;4221366;28;1360;-71
2022/01/27 07:57:23;;;;;;;;;;;;;;;;;;4221843;28;1538;-71
2022/01/27 07:59:43;;;;;;;;;;;;;;;;;;4221239;28;1902;-71
2022/01/27 08:02:04;;;;;;;;;;;;;;;;;;4220977;28;1766;-71
2022/01/27 08:04:24;;;;;;;;;;;;;;;;;;4220322;28;2199;-71
2022/01/27 08:06:45;;;;;;;;;;;;;;;;;;4220081;28;1893;-71
2022/01/27 08:09:05;;;;;;;;;;;;;;;;;;4220139;28;1523;-71
2022/01/27 08:11:26;;;;;;;;;;;;;;;;;;4221736;28;1672;-71
2022/01/27 08:13:46;;;;;;;;;;;;;;;;;;4219743;28;1590;-71
2022/01/27 08:16:07;;;;;;;;;;;;;;;;;;4220517;28;1789;-71
2022/01/27 08:18:27;;;;;;;;;;;;;;;;;;4216814;28;2016;-71
2022/01/27 08:20:49;;;;;;;;;;;;;;;;;;4219839;28;1988;-71
2022/01/27 08:23:09;;;;;;;;;;;;;;;;;;4221000;28;2161;-71
2022/01/27 08:25:29;;;;;;;;;;;;;;;;;;4221761;28;1719;-71
2022/01/27 08:27:52;;;;;;;;;;;;;;;;;;4220642;28;1090;-71
2022/01/27 08:30:15;;;;;;;;;;;;;;;;;;4204944;28;1012;-71
2022/01/27 08:32:47;;;;;;;;;;;;;;;;;;4204266;28;910;-72
2022/01/27 08:35:10;;;;;;;;;;;;;;;;;;4205479;28;850;-71
2022/01/27 08:37:30;;;;;;;;;;;;;;;;;;4205661;28;966;-71
2022/01/27 08:39:51;;;;;;;;;;;;;;;;;;4203820;28;1980;-71
2022/01/27 08:42:12;;;;;;;;;;;;;;;;;;4205455;28;925;-71
2022/01/27 08:44:32;;;;;;;;;;;;;;;;;;4205579;28;1160;-70
2022/01/27 08:46:52;;;;;;;;;;;;;;;;;;4205313;28;980;-71
2022/01/27 08:49:13;;;;;;;;;;;;;;;;;;4205449;28;1146;-71
2022/01/27 08:51:33;;;;;;;;;;;;;;;;;;4205354;28;1023;-71
2022/01/27 08:53:53;;;;;;;;;;;;;;;;;;4205281;28;980;-72
2022/01/27 08:56:16;;;;;;;;;;;;;;;;;;4205375;28;834;-70
2022/01/27 08:58:37;;;;;;;;;;;;;;;;;;4205160;28;946;-70
2022/01/27 09:00:57;;;;;;;;;;;;;;;;;;4205170;28;1906;-70
2022/01/27 09:03:17;;;;;;;;;;;;;;;;;;4205177;28;970;-71
2022/01/27 09:05:38;;;;;;;;;;;;;;;;;;4205139;28;896;-71
2022/01/27 09:07:58;;;;;;;;;;;;;;;;;;4205177;28;1280;-71
2022/01/27 09:10:18;;;;;;;;;;;;;;;;;;4205080;28;1026;-72
2022/01/27 09:12:39;;;;;;;;;;;;;;;;;;4205403;28;1064;-71
2022/01/27 09:15:02;;;;;;;;;;;;;;;;;;4204922;28;1144;-71
2022/01/27 09:17:26;;;;;;;;;;;;;;;;;;4205087;28;1036;-72
2022/01/27 09:19:46;;;;;;;;;;;;;;;;;;4203908;28;1905;-71
2022/01/27 09:22:11;;;;;;;;;;;;;;;;;;4205017;28;822;-72
2022/01/27 09:24:38;;;;;;;;;;;;;;;;;;4204798;28;926;-72
2022/01/27 09:27:01;;;;;;;;;;;;;;;;;;4204914;28;930;-72
2022/01/27 09:29:22;;;;;;;;;;;;;;;;;;4204974;28;892;-72
2022/01/27 09:33:35;;;;;;;;;;;;;;;;;;4236154;27;1345;-72
2022/01/27 09:35:55;;;;;;;;;;;;;;;;;;4235978;28;1378;-72
2022/01/27 09:38:16;;;;;;;;;;;;;;;;;;4236012;28;944;-73
2022/01/27 09:40:37;;;;;;;;;;;;;;;;;;4235989;28;1029;-71
2022/01/27 09:42:57;;;;;;;;;;;;;;;;;;4236002;28;997;-72
2022/01/27 09:45:18;;;;;;;;;;;;;;;;;;4235231;28;1779;-72
2022/01/27 09:47:41;;;;;;;;;;;;;;;;;;4235945;28;991;-72
2022/01/27 09:50:18;;;;;;;;;;;;;;;;;;4235936;28;928;-72
2022/01/27 09:52:39;;;;;;;;;;;;;;;;;;4235791;28;1898;-70
2022/01/27 09:54:59;;;;;;;;;;;;;;;;;;4235779;28;987;-72
2022/01/27 09:57:19;;;;;;;;;;;;;;;;;;4235432;27;1090;-71
2022/01/27 09:59:39;;;;;;;;;;;;;;;;;;4235534;28;1261;-71
2022/01/27 10:01:59;;;;;;;;;;;;;;;;;;4235628;27;1014;-72
2022/01/27 10:04:20;;;;;;;;;;;;;;;;;;4234644;28;1023;-71
2022/01/27 10:06:40;;;;;;;;;;;;;;;;;;4235730;28;935;-71
2022/01/27 10:09:01;;;;;;;;;;;;;;;;;;4235680;28;848;-71
2022/01/27 10:11:22;;;;;;;;;;;;;;;;;;4235451;27;1090;-71
2022/01/27 10:13:44;;;;;;;;;;;;;;;;;;4235314;28;1991;-71
2022/01/27 10:16:06;;;;;;;;;;;;;;;;;;4235618;28;863;-72
2022/01/27 10:18:34;;;;;;;;;;;;;;;;;;4235374;27;1066;-71
2022/01/27 10:20:55;;;;;;;;;;;;;;;;;;4235323;27;1154;-71
2022/01/27 10:23:15;;;;;;;;;;;;;;;;;;4235439;28;942;-72
2022/01/27 10:25:36;;;;;;;;;;;;;;;;;;4234547;28;841;-72
2022/01/27 10:28:09;;;;;;;;;;;;;;;;;;4235262;28;960;-72
2022/01/27 10:33:07;;;;;;;;;;;;;;;;;;4233583;28;1913;-67
2022/01/27 10:35:28;;;;;;;;;;;;;;;;;;4234666;28;817;-69
2022/01/27 10:37:49;;;;;;;;;;;;;;;;;;4234328;28;1030;-65
2022/01/27 10:40:10;;;;;;;;;;;;;;;;;;4234359;28;993;-64
2022/01/27 10:42:30;;;;;;;;;;;;;;;;;;4234702;28;800;-69
2022/01/27 10:44:56;;;;;;;;;;;;;;;;;;4223752;28;1032;-69
2022/01/27 10:47:18;;;;;;;;;;;;;;;;;;4223513;28;1180;-68
2022/01/27 10:49:44;;;;;;;;;;;;;;;;;;4222620;28;1034;-67
2022/01/27 10:52:05;;;;;;;;;;;;;;;;;;4222801;28;1984;-68
2022/01/27 10:54:35;;;;;;;;;;;;;;;;;;4223402;28;878;-68
2022/01/27 10:56:56;;;;;;;;;;;;;;;;;;4223119;28;946;-66
2022/01/27 10:59:16;;;;;;;;;;;;;;;;;;4222574;28;893;-68
2022/01/27 11:01:36;;;;;;;;;;;;;;;;;;4223192;28;1007;-66
2022/01/27 11:03:57;;;;;;;;;;;;;;;;;;4223212;28;981;-66
2022/01/27 11:06:17;;;;;;;;;;;;;;;;;;4223197;28;886;-66
2022/01/27 11:08:39;;;;;;;;;;;;;;;;;;4223243;28;982;-66
2022/01/27 11:11:01;;;;;;;;;;;;;;;;;;4223037;28;998;-66
2022/01/27 11:13:24;;;;;;;;;;;;;;;;;;4222964;28;1913;-66
2022/01/27 11:15:44;;;;;;;;;;;;;;;;;;4222509;28;1645;-66
2022/01/27 11:18:05;;;;;;;;;;;;;;;;;;4206258;28;929;-66
2022/01/27 11:20:31;;;;;;;;;;;;;;;;;;4205092;28;962;-65
2022/01/27 11:28:08;;;;;;;;;;;;;;;;;;4206151;28;1009;-66
2022/01/27 11:30:28;;;;;;;;;;;;;;;;;;4203846;28;996;-69
2022/01/27 11:32:49;;;;;;;;;;;;;;;;;;4205816;28;1914;-69
2022/01/27 11:35:10;;;;;;;;;;;;;;;;;;4206458;28;1009;-70
2022/01/27 11:37:31;;;;;;;;;;;;;;;;;;4205545;28;824;-69
2022/01/27 11:39:51;;;;;;;;;;;;;;;;;;4205990;28;1047;-69
2022/01/27 11:42:11;;;;;;;;;;;;;;;;;;4206010;28;825;-70
2022/01/27 11:44:33;;;;;;;;;;;;;;;;;;4209094;28;1594;-72
2022/01/27 11:46:53;;;;;;;;;;;;;;;;;;4220674;28;1432;-72
2022/01/27 11:49:13;;;;;;;;;;;;;;;;;;4222477;28;1066;-73
2022/01/27 11:51:34;;;;;;;;;;;;;;;;;;4222138;28;861;-70
2022/01/27 11:53:56;;;;;;;;;;;;;;;;;;4221604;28;1905;-72
2022/01/27 11:56:16;;;;;;;;;;;;;;;;;;4221367;28;968;-72
2022/01/27 11:58:38;;;;;;;;;;;;;;;;;;4230750;28;1040;-72
2022/01/27 12:00:59;;;;;;;;;;;;;;;;;;4222499;28;959;-73
2022/01/27 12:03:21;;;;;;;;;;;;;;;;;;4222442;28;960;-68
2022/01/27 12:05:41;;;;;;;;;;;;;;;;;;4222483;28;918;-71
2022/01/27 12:08:02;;;;;;;;;;;;;;;;;;4221841;28;824;-73
2022/01/27 12:10:22;;;;;;;;;;;;;;;;;;4221956;28;1107;-71
2022/01/27 12:12:43;;;;;;;;;;;;;;;;;;4220202;28;1909;-70
2022/01/27 12:15:06;;;;;;;;;;;;;;;;;;4221546;28;1181;-70
2022/01/27 12:17:28;;;;;;;;;;;;;;;;;;4221892;28;930;-70
2022/01/27 12:19:48;;;;;;;;;;;;;;;;;;4221899;28;988;-67
2022/01/27 12:22:10;;;;;;;;;;;;;;;;;;4220887;28;1020;-67
2022/01/27 12:24:31;;;;;;;;;;;;;;;;;;4221651;28;984;-68
2022/01/27 12:26:51;;;;;;;;;;;;;;;;;;4221858;28;1033;-66
2022/01/27 12:29:12;;;;;;;;;;;;;;;;;;4219804;28;1095;-67
2022/01/27 12:31:32;;;;;;;;;;;;;;;;;;4221357;28;1589;-67
2022/01/27 12:33:53;;;;;;;;;;;;;;;;;;4221723;28;1890;-65
2022/01/27 12:36:13;;;;;;;;;;;;;;;;;;4211257;28;966;-67
2022/01/27 12:38:34;;;;;;;;;;;;;;;;;;4206618;28;1975;-67
2022/01/27 12:40:54;;;;;;;;;;;;;;;;;;4205425;28;1345;-67
2022/01/27 12:43:15;;;;;;;;;;;;;;;;;;4204191;28;931;-68
2022/01/27 12:45:37;;;;;;;;;;;;;;;;;;4219849;28;1404;-65
2022/01/27 12:47:57;;;;;;;;;;;;;;;;;;4221031;28;1070;-65
2022/01/27 12:50:19;;;;;;;;;;;;;;;;;;4220545;28;832;-64
2022/01/27 12:52:42;;;;;;;;;;;;;;;;;;4220838;28;1129;-66
2022/01/27 12:55:03;;;;;;;;;;;;;;;;;;4221554;28;1051;-62
2022/01/27 12:57:23;;;;;;;;;;;;;;;;;;4218585;28;1261;-66
2022/01/27 12:59:44;;;;;;;;;;;;;;;;;;4220234;28;1431;-66
2022/01/27 13:02:05;;;;;;;;;;;;;;;;;;4221140;28;1060;-63
2022/01/27 13:04:26;;;;;;;;;;;;;;;;;;4220074;28;1112;-65
2022/01/27 13:06:46;;;;;;;;;;;;;;;;;;4220665;28;893;-63
2022/01/27 13:09:06;;;;;;;;;;;;;;;;;;4221513;28;988;-65
2022/01/27 13:11:27;;;;;;;;;;;;;;;;;;4221158;28;1018;-63
2022/01/27 13:13:48;;;;;;;;;;;;;;;;;;4219229;28;1988;-64
2022/01/27 13:16:13;;;;;;;;;;;;;;;;;;4220996;28;976;-65
2022/01/27 13:18:41;;;;;;;;;;;;;;;;;;4220999;28;1251;-66
2022/01/27 13:21:04;;;;;;;;;;;;;;;;;;4202687;28;937;-63
2022/01/27 13:23:30;;;;;;;;;;;;;;;;;;4203584;28;940;-66
2022/01/27 13:25:52;;;;;;;;;;;;;;;;;;4204287;28;945;-66
2022/01/27 13:28:14;;;;;;;;;;;;;;;;;;4202527;28;974;-66
2022/01/27 13:30:36;;;;;;;;;;;;;;;;;;4202795;28;1025;-66
2022/01/27 13:32:56;;;;;;;;;;;;;;;;;;4203961;28;1319;-65
2022/01/27 13:35:17;;;;;;;;;;;;;;;;;;4204083;28;1001;-69
2022/01/27 13:37:39;;;;;;;;;;;;;;;;;;4204355;28;834;-65
2022/01/27 13:42:37;;;;;;;;;;;;;;;;;;4203673;28;1234;-67
2022/01/27 13:44:57;;;;;;;;;;;;;;;;;;4204277;28;932;-68
2022/01/27 13:47:17;;;;;;;;;;;;;;;;;;4204130;28;941;-68
2022/01/27 13:49:37;;;;;;;;;;;;;;;;;;4203952;28;993;-67
2022/01/27 13:51:57;;;;;;;;;;;;;;;;;;4204135;28;1069;-67
2022/01/27 13:54:18;;;;;;;;;;;;;;;;;;4204176;28;1988;-67
2022/01/27 13:56:38;;;;;;;;;;;;;;;;;;4204069;28;991;-67
2022/01/27 13:58:58;;;;;;;;;;;;;;;;;;4203545;28;1351;-67
2022/01/27 14:01:19;;;;;;;;;;;;;;;;;;4203934;28;837;-68
2022/01/27 14:03:39;;;;;;;;;;;;;;;;;;4204618;28;910;-67
2022/01/27 14:06:00;;;;;;;;;;;;;;;;;;4203684;28;1187;-67
2022/01/27 14:08:21;;;;;;;;;;;;;;;;;;4204362;28;834;-67
2022/01/27 14:10:42;;;;;;;;;;;;;;;;;;4204417;28;983;-67
2022/01/27 14:13:04;;;;;;;;;;;;;;;;;;4204500;28;956;-67
2022/01/27 14:15:24;;;;;;;;;;;;;;;;;;4204310;28;988;-66
2022/01/27 14:17:44;;;;;;;;;;;;;;;;;;4216608;28;1470;-66
2022/01/27 14:20:05;;;;;;;;;;;;;;;;;;4218238;28;1847;-67
2022/01/27 14:22:28;;;;;;;;;;;;;;;;;;4206797;28;2069;-67
2022/01/27 14:24:48;;;;;;;;;;;;;;;;;;4207490;28;953;-67
2022/01/27 14:27:10;;;;;;;;;;;;;;;;;;4207262;28;967;-67
2022/01/27 14:29:32;;;;;;;;;;;;;;;;;;4207325;28;1018;-67
2022/01/27 14:31:53;;;;;;;;;;;;;;;;;;4206751;28;2323;-67
2022/01/27 14:34:13;;;;;;;;;;;;;;;;;;4218169;28;1980;-68
2022/01/27 14:36:36;;;;;;;;;;;;;;;;;;4207077;28;1011;-67
2022/01/27 14:38:57;;;;;;;;;;;;;;;;;;4218307;28;1441;-67
2022/01/27 14:41:17;;;;;;;;;;;;;;;;;;4223366;28;1739;-67
2022/01/27 14:43:39;;;;;;;;;;;;;;;;;;4223172;28;1025;-68
2022/01/27 14:46:00;;;;;;;;;;;;;;;;;;4223467;28;891;-67
2022/01/27 14:48:21;;;;;;;;;;;;;;;;;;4221724;28;1712;-67
2022/01/27 14:50:41;;;;;;;;;;;;;;;;;;4223555;28;1822;-67
2022/01/27 14:53:02;;;;;;;;;;;;;;;;;;4221106;28;2007;-67
2022/01/27 14:55:22;;;;;;;;;;;;;;;;;;4222922;28;1910;-67
2022/01/27 14:57:43;;;;;;;;;;;;;;;;;;4222818;28;1699;-68
2022/01/27 15:00:03;;;;;;;;;;;;;;;;;;4223236;28;960;-68
2022/01/27 15:02:23;;;;;;;;;;;;;;;;;;4223130;28;1317;-67
2022/01/27 15:04:43;;;;;;;;;;;;;;;;;;4223304;28;934;-67
2022/01/27 15:07:04;;;;;;;;;;;;;;;;;;4222306;28;1781;-67
2022/01/27 15:09:24;;;;;;;;;;;;;;;;;;4223269;28;1006;-66
2022/01/27 15:11:44;;;;;;;;;;;;;;;;;;4222949;28;1040;-66
2022/01/27 15:18:48;;;;;;;;;;;;;;;;;;4222874;28;1887;-66
2022/01/27 15:19:35;;;;;;;;;;;;;;;;;;4215658;28;2537;-68
2022/01/27 15:21:55;;;;;;;;;;;;;;;;;;4209185;28;2025;-66
2022/01/27 15:24:16;;;;;;;;;;;;;;;;;;4213105;28;2547;-67
2022/01/27 15:26:36;;;;;;;;;;;;;;;;;;4220359;28;1570;-67
2022/01/27 15:28:57;;;;;;;;;;;;;;;;;;4214919;28;2727;-67
2022/01/27 15:31:17;;;;;;;;;;;;;;;;;;4210352;28;2735;-67
2022/01/27 15:33:40;;;;;;;;;;;;;;;;;;4210059;28;1227;-67
2022/01/27 15:36:02;;;;;;;;;;;;;;;;;;4219735;28;1775;-67
2022/01/27 15:38:24;;;;;;;;;;;;;;;;;;4222586;28;1172;-67
2022/01/27 15:40:46;;;;;;;;;;;;;;;;;;4222821;28;1222;-67
2022/01/27 15:43:07;;;;;;;;;;;;;;;;;;4222548;28;1494;-66
2022/01/27 15:45:28;;;;;;;;;;;;;;;;;;4217754;28;3562;-65
2022/01/27 15:47:49;;;;;;;;;;;;;;;;;;4220326;28;1191;-65
2022/01/27 15:50:10;;;;;;;;;;;;;;;;;;4222624;28;1184;-66
2022/01/27 15:52:33;;;;;;;;;;;;;;;;;;4222282;28;1539;-63
2022/01/27 15:54:53;;;;;;;;;;;;;;;;;;4208969;28;2096;-63
2022/01/27 15:57:14;;;;;;;;;;;;;;;;;;4208837;28;2160;-63
2022/01/27 15:59:34;;;;;;;;;;;;;;;;;;4207649;28;2124;-63
2022/01/27 16:01:55;;;;;;;;;;;;;;;;;;4207516;28;2382;-63
2022/01/27 16:04:16;;;;;;;;;;;;;;;;;;4203333;28;2606;-63
2022/01/27 16:06:38;;;;;;;;;;;;;;;;;;4203813;28;3214;-63
2022/01/27 16:08:58;;;;;;;;;;;;;;;;;;4205193;28;2177;-63
2022/01/27 16:11:18;;;;;;;;;;;;;;;;;;4212448;28;2209;-63
2022/01/27 16:13:38;;;;;;;;;;;;;;;;;;4203252;28;2197;-63
2022/01/27 16:15:59;;;;;;;;;;;;;;;;;;4213766;28;1945;-65
2022/01/27 16:18:19;;;;;;;;;;;;;;;;;;4206541;28;2261;-64
2022/01/27 16:20:39;;;;;;;;;;;;;;;;;;4203174;28;2330;-63
2022/01/27 16:23:00;;;;;;;;;;;;;;;;;;4204234;28;2491;-63
2022/01/27 16:25:20;;;;;;;;;;;;;;;;;;4208044;28;1827;-63
2022/01/27 16:27:42;;;;;;;;;;;;;;;;;;4221838;28;1939;-63
2022/01/27 16:30:02;;;;;;;;;;;;;;;;;;4218792;28;1387;-64
2022/01/27 16:32:23;;;;;;;;;;;;;;;;;;4219067;28;1287;-63
2022/01/27 16:34:44;;;;;;;;;;;;;;;;;;4219562;28;1977;-63
2022/01/27 16:37:05;;;;;;;;;;;;;;;;;;4221576;28;1990;-63
2022/01/27 16:39:25;;;;;;;;;;;;;;;;;;4221465;28;1772;-63
2022/01/27 16:41:45;;;;;;;;;;;;;;;;;;4219174;28;1620;-63
2022/01/27 16:44:06;;;;;;;;;;;;;;;;;;4218718;28;1414;-64
2022/01/27 16:46:26;;;;;;;;;;;;;;;;;;4220175;28;1376;-63
2022/01/27 16:48:46;;;;;;;;;;;;;;;;;;4221522;28;1472;-63
2022/01/27 16:51:07;;;;;;;;;;;;;;;;;;4222755;28;864;-63
2022/01/27 16:53:27;;;;;;;;;;;;;;;;;;4221755;28;1574;-63
2022/01/27 16:55:48;;;;;;;;;;;;;;;;;;4220723;28;1910;-63
2022/01/27 16:58:08;;;;;;;;;;;;;;;;;;4221510;28;1218;-63
2022/01/27 17:00:29;;;;;;;;;;;;;;;;;;4221417;28;984;-63
2022/01/27 17:02:49;;;;;;;;;;;;;;;;;;4221289;28;1459;-63
2022/01/27 17:05:09;;;;;;;;;;;;;;;;;;4221540;28;1098;-63
2022/01/27 17:07:30;;;;;;;;;;;;;;;;;;4221635;28;948;-63
2022/01/27 17:09:50;;;;;;;;;;;;;;;;;;4221970;28;845;-63
2022/01/27 17:12:10;;;;;;;;;;;;;;;;;;4221909;28;837;-67
2022/01/27 17:14:31;;;;;;;;;;;;;;;;;;4221194;28;1901;-63